• Join FlightAware (Why Join?)
  • Login
  • US Flag 
10:27PM EDT


 

Airport Tracker/Info


-or-


 

Live Flight TrackerFlight Track Log ✈ GTI192 ✈ 03-May-2013 ✈ KTOL - KCVG

Flight Track Log - Related Links

Times and Time Zones

All times are in EDT time to prevent confusion due to time zone crossing. See the GTI192 flight status page for this flight to view local times or setup timezone preferences in your user account.

Time Position Orientation Groundspeed Altitude Reporting Facility
EDT Latitude Longitude Course Direction KTS MPH feet Rate Location/Type
12:37AM 41.5547 -83.7828 256° West 205 236 5,100  Level Cleveland Center
12:38AM 41.5028 -83.8411 220° Southwest 240 276 8,500 2,640 Climbing Cleveland Center
12:39AM 41.4467 -83.9075 222° Southwest 246 283 10,400 2,700 Climbing Cleveland Center
12:40AM 41.4000 -84.0075 238° Southwest 292 336 14,000 1,140 Climbing Cleveland Center
12:42AM 41.2246 -84.1649 256° West  Level FlightAware Approximate
12:42AM 41.1719 -84.1081 198° South 408 470 14,000  Level Indianapolis Center
12:43AM 41.0667 -84.1314 189° South 386 444 14,000  Level Indianapolis Center
12:44AM 40.9636 -84.1636 193° South 382 440 14,000  Level Indianapolis Center
12:45AM 40.8603 -84.1928 192° South 380 437 14,000  Level Indianapolis Center
12:46AM 40.7564 -84.2211 192° South 379 436 14,000  Level Indianapolis Center
12:47AM 40.6525 -84.2519 193° South 380 437 14,000  Level Indianapolis Center
12:48AM 40.5483 -84.2814 192° South 380 437 14,000  Level Indianapolis Center
12:49AM 40.4433 -84.3106 192° South 382 440 14,000  Level Indianapolis Center
12:50AM 40.3397 -84.3403 192° South 381 438 14,000  Level Indianapolis Center
12:51AM 40.2350 -84.3692 192° South 381 438 14,000  Level Indianapolis Center
12:52AM 40.1297 -84.3981 192° South 384 442 14,000  Level Indianapolis Center
12:54AM 40.0242 -84.4275 192° South 385 443 14,000  Level Indianapolis Center
12:55AM 39.9181 -84.4594 193° South 388 447 14,000 -300 Level Indianapolis Center
12:56AM 39.8131 -84.4914 193° South 387 445 13,500 -780 Descending Indianapolis Center
12:57AM 39.7100 -84.5200 192° South 381 438 12,500 -1,260 Descending Indianapolis Center
12:58AM 39.6094 -84.5439 190° South 371 427 11,000 -780 Descending Indianapolis Center
12:59AM 39.5083 -84.5753 193° South 371 427 11,000  Level Indianapolis Center
01:00AM 39.4239 -84.6481 214° Southwest 365 420 11,000 -420 Level Indianapolis Center
01:01AM 39.3500 -84.7167 216° Southwest 314 361 10,200 -960 Descending Cincinnati TRACON
01:02AM 39.2833 -84.7667 210° Southwest 254 292 9,100 -1,800 Descending Cincinnati TRACON
01:03AM 39.2333 -84.8000 207° Southwest 243 280 6,700 -1,680 Descending Cincinnati TRACON
01:03AM 39.1833 -84.8500 218° Southwest 247 284 6,000 -900 Descending Cincinnati TRACON
01:04AM 39.1333 -84.9000 218° Southwest 215 247 5,100 -1,260 Descending Cincinnati TRACON
01:05AM 39.0667 -84.9000 180° South 208 239 3,500 -900 Descending Cincinnati TRACON
01:06AM 39.0500 -84.8500 113° Southeast 158 182 3,500 -420 Level Cincinnati TRACON
01:07AM 39.0500 -84.8000 90° East 143 165 2,700 -900 Descending Cincinnati TRACON
01:08AM 39.0500 -84.7500 90° East 132 152 1,800 -780 Descending Cincinnati TRACON
01:09AM 39.0500 -84.7000 90° East 112 129 1,100 -660 Descending Cincinnati TRACON